Petrolina de Goias, Brazil
Current Conditions -  °F | °C
As of 7:00 PM on Wednesday 22 Oct 2014 (Local Time) from SBAN Reporting Station
Broken Clouds Broken Clouds  
Wind Chill: 66°   Ceiling: 10000
Heat Index: 66°   Visibility: 6mi
Dew Point: 61°   Wind: 6mph
Humidity: 83%   Direction: 340°NNW
Pressure: 30.06"   Gusts: NA
Location:  16.1°S, 49.34°W
Report Text: SBAN 222100Z 34005KT 9999 SCT030 FEW040TCU BKN100 19/16 Q1018 RETS
Loading
Personal Weather Stations






























Interactive Weather Map
Tropical Storm Tracking
New forecast layout! Learn more

10-Day Weather Forecast

Advertisements
Track Severe Weather on mobile